Racine, Ohio
Current Conditions -  °F | °C
As of 4:15 AM on Monday 24 Nov 2014 (Local Time) from K3I2 Reporting Station
Overcast Overcast  
Wind Chill: 63°   Ceiling: 4000
Heat Index: 63°   Visibility: 10mi
Dew Point: 54°   Wind: 13mph
Humidity: 72%   Direction: 220°SW
Pressure: 29.46"   Gusts: 18mph
Location:  38.97°N, 81.91°W
Report Text: K3I2 240915Z AUTO 22011G16KT 10SM BKN040 BKN046 OVC060 17/12 A2946 RMK AO2
Loading
Personal Weather Stations






























Interactive Weather Map New forecast layout! Learn more

10-Day Weather Forecast

Advertisements
Track Severe Weather on mobile